createdAt,value
2018-11-26T00:00:50.498Z,48.96
2018-11-26T00:03:17.340Z,48.86
2018-11-26T00:05:44.174Z,48.78
2018-11-26T00:08:11.527Z,48.59
2018-11-26T00:10:43.898Z,49.28
2018-11-26T00:13:10.738Z,48.71
2018-11-26T00:15:37.689Z,48.52
2018-11-26T00:18:04.846Z,48.56
2018-11-26T00:20:31.704Z,49.02
2018-11-26T00:22:59.616Z,48.48
2018-11-26T00:25:27.441Z,48.95
2018-11-26T00:27:55.101Z,48.50
2018-11-26T00:30:22.014Z,48.72
2018-11-26T00:32:49.736Z,48.58
2018-11-26T00:35:16.973Z,48.28
2018-11-26T00:37:45.746Z,48.33
2018-11-26T00:40:12.638Z,48.55
2018-11-26T00:42:39.628Z,48.53
2018-11-26T00:45:07.481Z,48.32
2018-11-26T00:47:34.323Z,48.42
2018-11-26T00:50:01.160Z,48.40
2018-11-26T00:52:27.988Z,48.71
2018-11-26T00:54:55.245Z,48.20
2018-11-26T00:57:22.898Z,49.56
2018-11-26T00:59:49.709Z,48.50
2018-11-26T01:02:17.177Z,49.23
2018-11-26T01:04:44.004Z,48.43
2018-11-26T01:07:11.706Z,48.05
2018-11-26T01:09:38.531Z,48.23
2018-11-26T01:12:05.742Z,48.48
2018-11-26T01:14:32.608Z,48.09
2018-11-26T01:17:00.336Z,48.40
2018-11-26T01:19:28.126Z,48.07
2018-11-26T01:21:55.868Z,48.37
2018-11-26T01:24:22.791Z,48.29
2018-11-26T01:26:50.634Z,48.10
2018-11-26T01:29:18.272Z,47.78
2018-11-26T01:31:46.821Z,48.04
2018-11-26T01:34:14.540Z,48.17
2018-11-26T01:36:42.337Z,47.78
2018-11-26T01:39:10.085Z,47.79
2018-11-26T01:41:37.994Z,47.81
2018-11-26T01:44:05.866Z,48.24
2018-11-26T01:46:33.657Z,47.47
2018-11-26T01:49:00.502Z,47.74
2018-11-26T01:51:27.347Z,47.64
2018-11-26T01:53:55.218Z,47.31
2018-11-26T01:56:22.263Z,48.27
2018-11-26T01:58:49.105Z,47.32
2018-11-26T02:01:16.937Z,47.96
2018-11-26T02:03:43.767Z,47.35
2018-11-26T02:06:11.573Z,47.44
2018-11-26T02:08:38.406Z,47.68
2018-11-26T02:11:06.301Z,47.35
2018-11-26T02:13:34.117Z,48.19
2018-11-26T02:16:00.969Z,48.40
2018-11-26T02:18:28.617Z,47.35
2018-11-26T02:20:56.426Z,47.55
2018-11-26T02:23:24.311Z,47.49
2018-11-26T02:25:51.221Z,47.71
2018-11-26T02:28:18.919Z,47.50
2018-11-26T02:30:46.800Z,48.42
2018-11-26T02:33:13.627Z,48.18
2018-11-26T02:35:41.402Z,47.47
2018-11-26T02:38:09.173Z,47.47
2018-11-26T02:40:36.027Z,47.24
2018-11-26T02:43:02.856Z,48.29
2018-11-26T02:45:29.832Z,47.46
2018-11-26T02:47:56.687Z,47.46
2018-11-26T02:50:23.557Z,47.34
2018-11-26T02:52:51.410Z,48.00
2018-11-26T02:55:19.095Z,47.80
2018-11-26T02:57:46.886Z,47.58
2018-11-26T03:00:13.847Z,47.11
2018-11-26T03:02:40.684Z,47.55
2018-11-26T03:05:09.126Z,47.19
2018-11-26T03:07:36.990Z,47.12
2018-11-26T03:10:04.314Z,47.03
2018-11-26T03:12:31.157Z,46.88
2018-11-26T03:14:58.020Z,46.98
2018-11-26T03:17:24.999Z,47.08
2018-11-26T03:19:51.848Z,47.83
2018-11-26T03:22:19.659Z,47.77
2018-11-26T03:24:47.323Z,46.76
2018-11-26T03:27:14.153Z,47.10
2018-11-26T03:29:41.023Z,47.04
2018-11-26T03:32:07.900Z,47.55
2018-11-26T03:34:35.766Z,46.98
2018-11-26T03:37:02.638Z,47.00
2018-11-26T03:39:30.486Z,47.15
2018-11-26T03:41:57.365Z,47.19
2018-11-26T03:44:25.150Z,46.75
2018-11-26T03:46:51.998Z,47.04
2018-11-26T03:49:19.658Z,46.77
2018-11-26T03:51:48.538Z,47.26
2018-11-26T03:54:16.306Z,46.56
2018-11-26T03:56:44.096Z,46.82
2018-11-26T03:59:10.974Z,46.40
2018-11-26T04:01:37.848Z,46.43
2018-11-26T04:04:04.693Z,47.24
2018-11-26T04:06:31.570Z,46.47
2018-11-26T04:08:59.468Z,47.13
2018-11-26T04:11:26.307Z,46.92
2018-11-26T04:13:53.156Z,47.08
2018-11-26T04:16:20.005Z,47.46
2018-11-26T04:18:46.827Z,47.25
2018-11-26T04:21:13.653Z,46.83
2018-11-26T04:23:40.526Z,47.30
2018-11-26T04:26:08.163Z,46.85
2018-11-26T04:28:34.952Z,47.68
2018-11-26T04:31:01.800Z,47.09
2018-11-26T04:33:28.737Z,46.71
2018-11-26T04:35:55.613Z,46.28
2018-11-26T04:38:22.450Z,46.58
2018-11-26T04:40:49.252Z,46.47
2018-11-26T04:43:17.183Z,46.98
2018-11-26T04:45:44.021Z,46.71
2018-11-26T04:48:11.898Z,46.78
2018-11-26T04:50:39.706Z,46.42
2018-11-26T04:53:07.499Z,46.90
2018-11-26T04:55:35.363Z,46.68
2018-11-26T04:58:02.232Z,46.95
2018-11-26T05:00:30.026Z,46.51
2018-11-26T05:02:57.666Z,46.63
2018-11-26T05:05:25.496Z,46.37
2018-11-26T05:07:53.158Z,46.58
2018-11-26T05:10:20.010Z,46.26
2018-11-26T05:12:46.881Z,47.43
2018-11-26T05:15:15.739Z,46.55
2018-11-26T05:17:44.399Z,46.40
2018-11-26T05:20:11.666Z,47.03
2018-11-26T05:22:38.532Z,46.81
2018-11-26T05:25:06.261Z,46.50
2018-11-26T05:27:33.104Z,46.71
2018-11-26T05:30:00.745Z,46.37
2018-11-26T05:32:27.605Z,46.32
2018-11-26T05:34:54.495Z,46.53
2018-11-26T05:37:22.361Z,47.61
2018-11-26T05:39:49.238Z,46.59
2018-11-26T05:42:16.832Z,46.35
2018-11-26T05:44:43.632Z,46.19
2018-11-26T05:47:10.467Z,46.44
2018-11-26T05:49:38.077Z,46.17
2018-11-26T05:52:05.994Z,46.06
2018-11-26T05:54:33.843Z,46.18
2018-11-26T05:57:01.674Z,46.44
2018-11-26T05:59:29.392Z,46.28
2018-11-26T06:01:56.213Z,46.59
2018-11-26T06:04:24.035Z,46.27
2018-11-26T06:06:50.872Z,47.12
2018-11-26T06:09:18.617Z,46.06
2018-11-26T06:11:46.132Z,46.98
2018-11-26T06:14:12.967Z,46.71
2018-11-26T06:16:39.822Z,46.60
2018-11-26T06:19:06.653Z,46.83
2018-11-26T06:21:33.501Z,46.47
2018-11-26T06:24:00.392Z,46.55
2018-11-26T06:26:27.217Z,46.47
2018-11-26T06:28:54.035Z,46.40
2018-11-26T06:31:20.888Z,46.77
2018-11-26T06:33:48.955Z,46.23
2018-11-26T06:36:16.207Z,46.58
2018-11-26T06:38:44.050Z,46.86
2018-11-26T06:41:11.765Z,46.59
2018-11-26T06:43:39.592Z,46.21
2018-11-26T06:46:07.733Z,46.53
2018-11-26T06:48:35.488Z,46.61
2018-11-26T06:51:02.360Z,46.62
2018-11-26T06:53:30.214Z,46.81
2018-11-26T06:55:57.071Z,46.68
2018-11-26T06:58:24.833Z,46.60
2018-11-26T07:00:51.705Z,46.65
2018-11-26T07:03:18.642Z,46.90
2018-11-26T07:05:46.277Z,46.96
2018-11-26T07:08:13.200Z,47.05
2018-11-26T07:10:40.877Z,46.53
2018-11-26T07:13:08.653Z,46.53
2018-11-26T07:15:36.482Z,46.94
2018-11-26T07:18:03.532Z,46.63
2018-11-26T07:20:31.152Z,46.35
2018-11-26T07:22:59.007Z,47.19
2018-11-26T07:25:26.864Z,46.40
2018-11-26T07:27:53.962Z,46.24
2018-11-26T07:30:30.719Z,46.72
2018-11-26T07:32:57.673Z,46.78
2018-11-26T07:35:24.558Z,46.49
2018-11-26T07:37:51.500Z,46.63
2018-11-26T07:40:19.851Z,46.46
2018-11-26T07:42:48.480Z,46.44
2018-11-26T07:45:16.716Z,46.59
2018-11-26T07:47:44.424Z,46.60
2018-11-26T07:50:15.566Z,46.48
2018-11-26T07:52:43.207Z,46.45
2018-11-26T07:55:11.515Z,46.71
2018-11-26T07:57:39.248Z,46.82
2018-11-26T08:00:09.360Z,46.83
2018-11-26T08:02:36.219Z,46.73
2018-11-26T08:05:04.365Z,47.06
2018-11-26T08:07:31.239Z,46.71
2018-11-26T08:09:58.097Z,46.66
2018-11-26T08:12:24.978Z,47.12
2018-11-26T08:14:52.820Z,46.96
2018-11-26T08:17:19.651Z,47.01
2018-11-26T08:19:47.987Z,47.11
2018-11-26T08:22:16.204Z,47.29
2018-11-26T08:24:44.027Z,47.53
2018-11-26T08:27:10.866Z,46.81
2018-11-26T08:29:38.484Z,46.50
2018-11-26T08:32:06.287Z,46.77
2018-11-26T08:34:33.948Z,46.65
2018-11-26T08:37:10.377Z,46.80
2018-11-26T08:39:42.851Z,46.65
2018-11-26T08:42:16.353Z,46.87
2018-11-26T08:44:46.591Z,47.12
2018-11-26T08:47:18.629Z,46.94
2018-11-26T08:49:47.541Z,46.69
2018-11-26T08:52:14.368Z,46.90
2018-11-26T08:54:42.171Z,46.94
2018-11-26T08:57:09.898Z,46.83
2018-11-26T08:59:37.621Z,47.58
2018-11-26T09:02:09.565Z,46.99
2018-11-26T09:04:45.824Z,47.06
2018-11-26T09:07:13.589Z,46.90
2018-11-26T09:09:41.373Z,46.94
2018-11-26T09:12:09.165Z,46.93
2018-11-26T09:14:35.997Z,46.87
2018-11-26T09:17:02.931Z,46.76
2018-11-26T09:19:30.728Z,46.89
2018-11-26T09:21:58.506Z,47.07
2018-11-26T09:24:26.283Z,46.84
2018-11-26T09:26:54.006Z,46.94
2018-11-26T09:29:21.780Z,46.78
2018-11-26T09:31:48.596Z,46.58
2018-11-26T09:34:16.114Z,46.89
2018-11-26T09:36:43.780Z,46.83
2018-11-26T09:39:11.627Z,46.86
2018-11-26T09:41:40.209Z,47.45
2018-11-26T09:44:06.689Z,47.12
2018-11-26T09:46:34.919Z,47.17
2018-11-26T09:49:01.770Z,46.91
2018-11-26T09:51:28.655Z,46.64
2018-11-26T09:53:55.475Z,46.69
2018-11-26T09:56:22.269Z,46.92
2018-11-26T09:58:49.111Z,46.92
2018-11-26T10:01:16.841Z,46.93
2018-11-26T10:03:43.762Z,46.85
2018-11-26T10:06:10.636Z,47.40
2018-11-26T10:08:37.489Z,47.32
2018-11-26T10:11:04.309Z,46.60
2018-11-26T10:13:31.156Z,46.74
2018-11-26T10:15:58.844Z,46.93
2018-11-26T10:18:26.552Z,46.93
2018-11-26T10:20:54.345Z,46.99
2018-11-26T10:23:21.198Z,46.79
2018-11-26T10:25:48.036Z,46.72
2018-11-26T10:28:16.540Z,46.88
2018-11-26T10:30:43.423Z,46.78
2018-11-26T10:33:14.643Z,46.77
2018-11-26T10:35:37.193Z,46.81
2018-11-26T10:38:05.115Z,46.85
2018-11-26T10:40:31.977Z,46.59
2018-11-26T10:42:59.464Z,46.83
2018-11-26T10:45:26.302Z,47.12
2018-11-26T10:47:53.973Z,46.83
2018-11-26T10:50:21.808Z,46.85
2018-11-26T10:52:52.065Z,46.96
2018-11-26T10:55:20.530Z,46.91
2018-11-26T10:57:48.310Z,46.72
2018-11-26T11:02:28.699Z,47.14
2018-11-26T11:04:56.531Z,46.71
2018-11-26T11:07:23.491Z,47.01
2018-11-26T11:09:50.320Z,47.00
2018-11-26T11:12:17.167Z,46.96
2018-11-26T11:14:44.055Z,46.73
2018-11-26T11:17:11.861Z,46.60
2018-11-26T11:19:39.605Z,46.55
2018-11-26T11:22:05.781Z,47.10
2018-11-26T11:24:32.599Z,46.83
2018-11-26T11:27:00.408Z,46.25
2018-11-26T11:29:27.245Z,46.87
2018-11-26T11:31:54.183Z,46.62
2018-11-26T11:34:21.004Z,46.68
2018-11-26T11:36:47.841Z,46.85
2018-11-26T11:39:15.436Z,46.92
2018-11-26T11:41:43.188Z,47.62
2018-11-26T11:44:10.160Z,46.32
2018-11-26T11:46:37.000Z,46.36
2018-11-26T11:49:05.062Z,46.42
2018-11-26T11:51:32.853Z,47.41
2018-11-26T11:53:59.672Z,46.34
2018-11-26T11:56:27.346Z,46.09
2018-11-26T11:58:55.287Z,46.79
2018-11-26T12:01:22.301Z,46.27
2018-11-26T12:03:51.194Z,46.09
2018-11-26T12:06:18.130Z,46.33
2018-11-26T12:08:46.905Z,46.27
2018-11-26T12:11:13.728Z,46.41
2018-11-26T12:13:40.625Z,46.73
2018-11-26T12:16:08.401Z,46.47
2018-11-26T12:18:36.043Z,46.22
2018-11-26T12:21:03.789Z,46.09
2018-11-26T12:23:30.627Z,46.27
2018-11-26T12:25:58.491Z,46.21
2018-11-26T12:28:25.351Z,45.82
2018-11-26T12:30:53.144Z,46.24
2018-11-26T12:33:20.001Z,45.96
2018-11-26T12:35:47.787Z,45.83
2018-11-26T12:38:16.457Z,45.96
2018-11-26T12:40:43.337Z,45.92
2018-11-26T12:43:10.184Z,45.91
2018-11-26T12:45:38.031Z,45.67
2018-11-26T12:48:04.937Z,45.76
2018-11-26T12:50:31.782Z,45.57
2018-11-26T12:52:58.642Z,45.47
2018-11-26T12:55:25.544Z,45.71
2018-11-26T12:57:52.931Z,45.92
2018-11-26T13:00:21.114Z,45.34
2018-11-26T13:02:48.560Z,45.87
2018-11-26T13:05:16.423Z,45.83
2018-11-26T13:07:43.264Z,45.96
2018-11-26T13:10:11.658Z,46.01
2018-11-26T13:12:38.660Z,45.92
2018-11-26T13:15:08.002Z,46.83
2018-11-26T13:17:35.654Z,45.65
2018-11-26T13:20:02.966Z,45.88
2018-11-26T13:22:29.789Z,45.40
2018-11-26T13:24:57.468Z,45.73
2018-11-26T13:27:24.493Z,45.60
2018-11-26T13:29:51.463Z,45.72
2018-11-26T13:32:18.508Z,45.80
2018-11-26T13:34:46.147Z,45.75
2018-11-26T13:37:13.016Z,45.71
2018-11-26T13:39:39.870Z,45.72
2018-11-26T13:42:06.720Z,45.80
2018-11-26T13:44:34.485Z,45.75
2018-11-26T13:47:02.350Z,46.32
2018-11-26T13:49:29.980Z,46.12
2018-11-26T13:51:56.855Z,45.90
2018-11-26T13:54:24.751Z,46.04
2018-11-26T13:56:52.630Z,46.40
2018-11-26T13:59:20.406Z,46.88
2018-11-26T14:01:47.259Z,45.76
2018-11-26T14:04:15.631Z,45.62
2018-11-26T14:06:42.459Z,45.77
2018-11-26T14:09:10.164Z,45.58
2018-11-26T14:11:37.001Z,46.83
2018-11-26T14:14:05.604Z,45.71
2018-11-26T14:16:33.459Z,45.79
2018-11-26T14:19:00.277Z,46.31
2018-11-26T14:21:27.145Z,45.86
2018-11-26T14:23:54.066Z,46.29
2018-11-26T14:26:20.875Z,45.70
2018-11-26T14:28:48.558Z,45.60
2018-11-26T14:31:16.131Z,45.65
2018-11-26T14:33:42.957Z,45.80
2018-11-26T14:36:10.598Z,45.68
2018-11-26T14:38:38.448Z,45.32
2018-11-26T14:41:06.130Z,45.77
2018-11-26T14:43:33.936Z,45.68
2018-11-26T14:46:00.782Z,45.52
2018-11-26T14:48:27.603Z,46.47
2018-11-26T14:50:55.265Z,47.01
2018-11-26T14:53:22.138Z,45.89
2018-11-26T14:55:48.961Z,45.26
2018-11-26T14:58:16.703Z,45.86
2018-11-26T15:00:43.751Z,45.96
2018-11-26T15:03:11.572Z,45.14
2018-11-26T15:05:38.394Z,45.19
2018-11-26T15:08:05.237Z,45.37
2018-11-26T15:10:33.053Z,45.22
2018-11-26T15:12:59.889Z,46.27
2018-11-26T15:15:27.236Z,45.52
2018-11-26T15:17:54.026Z,46.98
2018-11-26T15:20:22.482Z,45.27
2018-11-26T15:22:49.634Z,45.04
2018-11-26T15:25:18.854Z,45.29
2018-11-26T15:27:46.769Z,45.11
2018-11-26T15:30:14.082Z,44.89
2018-11-26T15:32:41.119Z,44.96
2018-11-26T15:35:08.927Z,45.39
2018-11-26T15:37:35.756Z,45.02
2018-11-26T15:40:02.583Z,45.89
2018-11-26T15:42:29.459Z,45.45
2018-11-26T15:44:56.364Z,44.90
2018-11-26T15:47:23.361Z,45.37
2018-11-26T15:49:50.215Z,44.95
2018-11-26T15:52:17.063Z,45.27
2018-11-26T15:54:43.943Z,45.10
2018-11-26T15:57:11.432Z,44.78
2018-11-26T15:59:38.311Z,45.09
2018-11-26T16:02:05.217Z,45.19
2018-11-26T16:04:32.060Z,44.98
2018-11-26T16:06:58.829Z,45.12
2018-11-26T16:09:26.509Z,45.10
2018-11-26T16:11:54.327Z,44.87
2018-11-26T16:14:21.214Z,45.93
2018-11-26T16:16:48.090Z,45.02
2018-11-26T16:19:16.245Z,44.80
2018-11-26T16:21:44.095Z,45.13
2018-11-26T16:24:10.952Z,44.79
2018-11-26T16:26:37.836Z,45.38
2018-11-26T16:29:04.728Z,45.51
2018-11-26T16:31:31.614Z,46.08
2018-11-26T16:33:58.456Z,45.68
2018-11-26T16:36:25.285Z,45.01
2018-11-26T16:38:53.234Z,45.39
2018-11-26T16:41:20.066Z,45.29
2018-11-26T16:43:48.354Z,44.80
2018-11-26T16:46:16.179Z,45.43
2018-11-26T16:48:43.017Z,46.03
2018-11-26T16:51:09.862Z,45.53
2018-11-26T16:53:36.700Z,45.37
2018-11-26T16:56:04.626Z,45.24
2018-11-26T16:58:31.482Z,45.37
2018-11-26T17:00:59.125Z,45.20
2018-11-26T17:03:25.958Z,45.25
2018-11-26T17:05:53.835Z,45.42
2018-11-26T17:08:20.679Z,45.06
2018-11-26T17:10:47.869Z,45.37
2018-11-26T17:13:14.534Z,45.19
2018-11-26T17:15:41.454Z,45.27
2018-11-26T17:18:08.374Z,45.17
2018-11-26T17:20:35.710Z,45.03
2018-11-26T17:23:02.553Z,45.80
2018-11-26T17:25:29.405Z,45.31
2018-11-26T17:27:56.262Z,44.91
2018-11-26T17:30:24.374Z,45.29
2018-11-26T17:32:51.963Z,45.14
2018-11-26T17:35:18.921Z,44.95
2018-11-26T17:37:46.220Z,45.02
2018-11-26T17:40:16.653Z,45.35
2018-11-26T17:42:44.311Z,45.20
2018-11-26T17:45:11.686Z,45.09
2018-11-26T17:47:38.839Z,45.12
2018-11-26T17:50:21.288Z,45.18
2018-11-26T17:52:48.122Z,45.08
2018-11-26T17:55:15.271Z,44.91
2018-11-26T17:57:42.177Z,45.01
2018-11-26T18:00:17.563Z,45.21
2018-11-26T18:02:46.154Z,45.00
2018-11-26T18:05:13.895Z,44.98
2018-11-26T18:07:40.709Z,44.87
2018-11-26T18:10:08.782Z,44.70
2018-11-26T18:12:36.547Z,44.83
2018-11-26T18:15:03.916Z,44.64
2018-11-26T18:17:31.699Z,44.78
2018-11-26T18:19:59.348Z,44.93
2018-11-26T18:22:26.173Z,44.60
2018-11-26T18:24:53.039Z,44.73
2018-11-26T18:27:19.987Z,44.78
2018-11-26T18:29:46.926Z,44.53
2018-11-26T18:32:13.955Z,44.80
2018-11-26T18:34:40.793Z,44.70
2018-11-26T18:37:08.716Z,44.80
2018-11-26T18:39:35.525Z,44.57
2018-11-26T18:42:02.370Z,44.47
2018-11-26T18:44:30.178Z,44.78
2018-11-26T18:46:57.851Z,44.78
2018-11-26T18:49:24.691Z,44.63
2018-11-26T18:51:51.591Z,44.95
2018-11-26T18:54:19.249Z,44.72
2018-11-26T18:56:46.690Z,44.78
2018-11-26T18:59:13.567Z,44.75
2018-11-26T19:01:41.014Z,45.20
2018-11-26T19:04:07.953Z,45.06
2018-11-26T19:06:36.010Z,45.38
2018-11-26T19:09:03.176Z,44.99
2018-11-26T19:11:30.033Z,45.41
2018-11-26T19:14:00.108Z,44.91
2018-11-26T19:16:30.235Z,45.55
2018-11-26T19:18:58.050Z,45.33
2018-11-26T19:21:26.007Z,45.14
2018-11-26T19:23:53.017Z,45.14
2018-11-26T19:26:19.913Z,45.25
2018-11-26T19:28:47.653Z,44.94
2018-11-26T19:31:15.263Z,45.11
2018-11-26T19:33:43.124Z,44.89
2018-11-26T19:36:10.753Z,45.27
2018-11-26T19:41:49.336Z,45.45
2018-11-26T19:44:16.977Z,45.16
2018-11-26T19:46:43.827Z,45.06
2018-11-26T19:49:10.709Z,45.14
2018-11-26T19:51:37.615Z,45.17
2018-11-26T19:54:05.716Z,45.01
2018-11-26T19:56:32.551Z,45.23
2018-11-26T19:58:59.383Z,45.19
2018-11-26T20:01:26.199Z,44.94
2018-11-26T20:03:54.858Z,45.06
2018-11-26T20:06:22.816Z,45.11
2018-11-26T20:08:50.383Z,45.24
2018-11-26T20:11:17.193Z,45.08
2018-11-26T20:13:44.104Z,45.37
2018-11-26T20:16:13.776Z,45.00
2018-11-26T20:18:41.597Z,45.25
2018-11-26T20:21:08.489Z,45.13
2018-11-26T20:23:35.391Z,45.12
2018-11-26T20:26:03.135Z,45.25
2018-11-26T20:28:30.019Z,45.33
2018-11-26T20:30:57.008Z,45.29
2018-11-26T20:33:24.087Z,45.13
2018-11-26T20:35:51.086Z,45.29
2018-11-26T20:38:17.969Z,45.34
2018-11-26T20:40:45.603Z,46.05
2018-11-26T20:43:12.999Z,44.86
2018-11-26T20:45:40.724Z,45.27
2018-11-26T20:48:08.828Z,44.93
2018-11-26T20:50:35.894Z,44.93
2018-11-26T20:53:02.870Z,44.97
2018-11-26T20:55:30.584Z,45.22
2018-11-26T20:57:57.447Z,45.10
2018-11-26T21:00:25.997Z,44.78
2018-11-26T21:02:54.354Z,45.06
2018-11-26T21:05:22.127Z,45.10
2018-11-26T21:07:49.968Z,45.04
2018-11-26T21:10:17.767Z,44.86
2018-11-26T21:12:46.267Z,44.93
2018-11-26T21:15:16.417Z,45.01
2018-11-26T21:17:45.506Z,44.81
2018-11-26T21:20:13.264Z,44.85
2018-11-26T21:22:41.198Z,45.74
2018-11-26T21:25:10.217Z,45.03
2018-11-26T21:27:37.889Z,44.95
2018-11-26T21:30:06.374Z,45.08
2018-11-26T21:32:33.208Z,44.65
2018-11-26T21:35:01.033Z,45.63
2018-11-26T21:37:27.876Z,44.91
2018-11-26T21:39:54.723Z,44.50
2018-11-26T21:42:21.508Z,44.69
2018-11-26T21:44:48.352Z,44.29
2018-11-26T21:47:16.014Z,44.66
2018-11-26T21:49:42.857Z,45.32
2018-11-26T21:52:09.685Z,44.64
2018-11-26T21:54:37.381Z,44.38
2018-11-26T21:57:05.732Z,44.32
2018-11-26T21:59:32.673Z,45.24
2018-11-26T22:01:59.724Z,44.91
2018-11-26T22:04:26.552Z,44.54
2018-11-26T22:06:53.394Z,44.50
2018-11-26T22:09:20.239Z,44.54
2018-11-26T22:11:47.069Z,44.63
2018-11-26T22:14:15.441Z,44.44
2018-11-26T22:16:42.330Z,44.79
2018-11-26T22:19:10.071Z,44.55
2018-11-26T22:21:36.884Z,44.73
2018-11-26T22:24:03.809Z,44.40
2018-11-26T22:26:30.646Z,44.11
2018-11-26T22:28:57.457Z,44.28
2018-11-26T22:31:24.302Z,44.24
2018-11-26T22:33:52.830Z,44.42
2018-11-26T22:36:19.653Z,44.24
2018-11-26T22:38:47.093Z,44.53
2018-11-26T22:41:13.872Z,44.60
2018-11-26T22:43:40.701Z,44.28
2018-11-26T22:46:07.529Z,44.36
2018-11-26T22:48:34.370Z,44.34
2018-11-26T22:51:01.218Z,44.86
2018-11-26T22:53:28.090Z,44.75
2018-11-26T22:55:54.902Z,44.79
2018-11-26T22:58:21.750Z,44.48
2018-11-26T23:00:49.408Z,44.80
2018-11-26T23:03:17.887Z,44.49
2018-11-26T23:05:45.419Z,44.51
2018-11-26T23:08:12.325Z,44.66
2018-11-26T23:10:40.172Z,44.46
2018-11-26T23:13:08.224Z,44.96
2018-11-26T23:15:35.067Z,44.42
2018-11-26T23:18:01.912Z,44.44
2018-11-26T23:20:28.921Z,44.63
2018-11-26T23:22:56.643Z,44.44
2018-11-26T23:25:23.501Z,44.40
2018-11-26T23:27:50.410Z,44.74
2018-11-26T23:30:18.924Z,44.37
2018-11-26T23:32:46.850Z,44.32
2018-11-26T23:35:13.734Z,44.48
2018-11-26T23:37:40.569Z,44.37
2018-11-26T23:40:09.114Z,45.04
2018-11-26T23:42:37.040Z,44.52
2018-11-26T23:45:21.621Z,44.70
2018-11-26T23:47:48.439Z,44.39
2018-11-26T23:50:16.149Z,44.60
2018-11-26T23:52:43.294Z,44.50
2018-11-26T23:55:11.331Z,44.82
2018-11-26T23:57:38.160Z,44.94
